sensor_id;sensor_type;location;lat;lon;timestamp;P1;P2;P0
81640;PMS5003;71053;50.722;-1.944;2023-07-22T00:00:04;3;3;
81640;PMS5003;71053;50.722;-1.944;2023-07-22T00:02:29;2;2;
81640;PMS5003;71053;50.722;-1.944;2023-07-22T00:04:54;3;3;
81640;PMS5003;71053;50.722;-1.944;2023-07-22T00:07:19;3;3;
81640;PMS5003;71053;50.722;-1.944;2023-07-22T00:09:44;4;3;
81640;PMS5003;71053;50.722;-1.944;2023-07-22T00:12:10;4;4;
81640;PMS5003;71053;50.722;-1.944;2023-07-22T00:14:38;4;4;
81640;PMS5003;71053;50.722;-1.944;2023-07-22T00:17:00;4;4;
81640;PMS5003;71053;50.722;-1.944;2023-07-22T00:19:25;4;4;
81640;PMS5003;71053;50.722;-1.944;2023-07-22T00:21:51;4;4;
81640;PMS5003;71053;50.722;-1.944;2023-07-22T00:24:16;3;3;
81640;PMS5003;71053;50.722;-1.944;2023-07-22T00:26:41;4;4;
81640;PMS5003;71053;50.722;-1.944;2023-07-22T00:29:07;3;3;
81640;PMS5003;71053;50.722;-1.944;2023-07-22T00:31:32;3;3;
81640;PMS5003;71053;50.722;-1.944;2023-07-22T00:33:57;4;4;
81640;PMS5003;71053;50.722;-1.944;2023-07-22T00:36:22;3;3;
81640;PMS5003;71053;50.722;-1.944;2023-07-22T00:38:48;2;2;
81640;PMS5003;71053;50.722;-1.944;2023-07-22T00:41:13;5;4;
81640;PMS5003;71053;50.722;-1.944;2023-07-22T00:43:38;2;2;
81640;PMS5003;71053;50.722;-1.944;2023-07-22T00:46:04;3;3;
81640;PMS5003;71053;50.722;-1.944;2023-07-22T00:48:30;4;4;
81640;PMS5003;71053;50.722;-1.944;2023-07-22T00:50:55;4;4;
81640;PMS5003;71053;50.722;-1.944;2023-07-22T00:53:20;4;4;
81640;PMS5003;71053;50.722;-1.944;2023-07-22T00:55:46;4;4;
81640;PMS5003;71053;50.722;-1.944;2023-07-22T00:58:11;4;4;
81640;PMS5003;71053;50.722;-1.944;2023-07-22T01:00:36;4;3;
81640;PMS5003;71053;50.722;-1.944;2023-07-22T01:03:01;4;4;
81640;PMS5003;71053;50.722;-1.944;2023-07-22T01:05:27;3;3;
81640;PMS5003;71053;50.722;-1.944;2023-07-22T01:07:52;4;3;
81640;PMS5003;71053;50.722;-1.944;2023-07-22T01:10:17;3;3;
81640;PMS5003;71053;50.722;-1.944;2023-07-22T01:12:43;3;3;
81640;PMS5003;71053;50.722;-1.944;2023-07-22T01:15:08;2;2;
81640;PMS5003;71053;50.722;-1.944;2023-07-22T01:17:33;3;3;
81640;PMS5003;71053;50.722;-1.944;2023-07-22T01:19:59;3;2;
81640;PMS5003;71053;50.722;-1.944;2023-07-22T01:22:24;4;3;
81640;PMS5003;71053;50.722;-1.944;2023-07-22T01:24:49;3;3;
81640;PMS5003;71053;50.722;-1.944;2023-07-22T01:27:14;3;3;
81640;PMS5003;71053;50.722;-1.944;2023-07-22T01:29:40;4;3;
81640;PMS5003;71053;50.722;-1.944;2023-07-22T01:32:05;1;1;
81640;PMS5003;71053;50.722;-1.944;2023-07-22T01:34:30;4;4;
81640;PMS5003;71053;50.722;-1.944;2023-07-22T01:36:55;4;4;
81640;PMS5003;71053;50.722;-1.944;2023-07-22T01:39:21;4;4;
81640;PMS5003;71053;50.722;-1.944;2023-07-22T01:41:46;2;2;
81640;PMS5003;71053;50.722;-1.944;2023-07-22T01:44:11;3;3;
81640;PMS5003;71053;50.722;-1.944;2023-07-22T01:46:37;3;3;
81640;PMS5003;71053;50.722;-1.944;2023-07-22T01:49:04;2;2;
81640;PMS5003;71053;50.722;-1.944;2023-07-22T01:51:27;4;4;
81640;PMS5003;71053;50.722;-1.944;2023-07-22T01:53:52;3;3;
81640;PMS5003;71053;50.722;-1.944;2023-07-22T01:56:18;2;2;
81640;PMS5003;71053;50.722;-1.944;2023-07-22T01:58:43;3;3;
81640;PMS5003;71053;50.722;-1.944;2023-07-22T02:01:08;3;3;
81640;PMS5003;71053;50.722;-1.944;2023-07-22T02:03:34;3;3;
81640;PMS5003;71053;50.722;-1.944;2023-07-22T02:06:01;2;2;
81640;PMS5003;71053;50.722;-1.944;2023-07-22T02:08:25;4;4;
81640;PMS5003;71053;50.722;-1.944;2023-07-22T02:10:50;4;3;
81640;PMS5003;71053;50.722;-1.944;2023-07-22T02:13:15;3;3;
81640;PMS5003;71053;50.722;-1.944;2023-07-22T02:15:41;2;2;
81640;PMS5003;71053;50.722;-1.944;2023-07-22T02:18:06;3;3;
81640;PMS5003;71053;50.722;-1.944;2023-07-22T02:20:31;1;1;
81640;PMS5003;71053;50.722;-1.944;2023-07-22T02:22:56;2;2;
81640;PMS5003;71053;50.722;-1.944;2023-07-22T02:25:21;3;3;
81640;PMS5003;71053;50.722;-1.944;2023-07-22T02:27:47;2;2;
81640;PMS5003;71053;50.722;-1.944;2023-07-22T02:30:12;3;3;
81640;PMS5003;71053;50.722;-1.944;2023-07-22T02:32:38;1;1;
81640;PMS5003;71053;50.722;-1.944;2023-07-22T02:35:03;1;1;
81640;PMS5003;71053;50.722;-1.944;2023-07-22T02:37:28;1;1;
81640;PMS5003;71053;50.722;-1.944;2023-07-22T02:39:54;2;2;
81640;PMS5003;71053;50.722;-1.944;2023-07-22T02:42:18;3;3;
81640;PMS5003;71053;50.722;-1.944;2023-07-22T02:44:44;2;2;
81640;PMS5003;71053;50.722;-1.944;2023-07-22T02:47:09;2;2;
81640;PMS5003;71053;50.722;-1.944;2023-07-22T02:49:34;2;2;
81640;PMS5003;71053;50.722;-1.944;2023-07-22T02:51:59;4;4;
81640;PMS5003;71053;50.722;-1.944;2023-07-22T02:54:25;1;1;
81640;PMS5003;71053;50.722;-1.944;2023-07-22T02:56:50;3;2;
81640;PMS5003;71053;50.722;-1.944;2023-07-22T02:59:15;2;2;
81640;PMS5003;71053;50.722;-1.944;2023-07-22T03:01:40;2;2;
81640;PMS5003;71053;50.722;-1.944;2023-07-22T03:04:06;4;4;
81640;PMS5003;71053;50.722;-1.944;2023-07-22T03:06:31;7;4;
81640;PMS5003;71053;50.722;-1.944;2023-07-22T03:08:56;3;2;
81640;PMS5003;71053;50.722;-1.944;2023-07-22T03:11:21;2;2;
81640;PMS5003;71053;50.722;-1.944;2023-07-22T03:13:47;2;2;
81640;PMS5003;71053;50.722;-1.944;2023-07-22T03:16:12;3;3;
81640;PMS5003;71053;50.722;-1.944;2023-07-22T03:18:37;1;1;
81640;PMS5003;71053;50.722;-1.944;2023-07-22T03:21:02;3;3;
81640;PMS5003;71053;50.722;-1.944;2023-07-22T03:23:28;2;2;
81640;PMS5003;71053;50.722;-1.944;2023-07-22T03:25:53;2;2;
81640;PMS5003;71053;50.722;-1.944;2023-07-22T03:28:18;3;2;
81640;PMS5003;71053;50.722;-1.944;2023-07-22T03:30:43;3;3;
81640;PMS5003;71053;50.722;-1.944;2023-07-22T03:33:09;2;2;
81640;PMS5003;71053;50.722;-1.944;2023-07-22T03:35:34;3;3;
81640;PMS5003;71053;50.722;-1.944;2023-07-22T03:37:59;3;3;
81640;PMS5003;71053;50.722;-1.944;2023-07-22T03:40:25;1;1;
81640;PMS5003;71053;50.722;-1.944;2023-07-22T03:42:50;3;3;
81640;PMS5003;71053;50.722;-1.944;2023-07-22T03:45:15;2;2;
81640;PMS5003;71053;50.722;-1.944;2023-07-22T03:47:40;3;3;
81640;PMS5003;71053;50.722;-1.944;2023-07-22T03:50:06;3;3;
81640;PMS5003;71053;50.722;-1.944;2023-07-22T03:52:31;4;4;
81640;PMS5003;71053;50.722;-1.944;2023-07-22T03:54:56;4;4;
81640;PMS5003;71053;50.722;-1.944;2023-07-22T03:57:25;2;2;
81640;PMS5003;71053;50.722;-1.944;2023-07-22T03:59:47;2;2;
81640;PMS5003;71053;50.722;-1.944;2023-07-22T04:02:12;3;2;
81640;PMS5003;71053;50.722;-1.944;2023-07-22T04:04:37;4;4;
81640;PMS5003;71053;50.722;-1.944;2023-07-22T04:07:03;2;2;
81640;PMS5003;71053;50.722;-1.944;2023-07-22T04:09:28;3;3;
81640;PMS5003;71053;50.722;-1.944;2023-07-22T04:11:53;3;3;
81640;PMS5003;71053;50.722;-1.944;2023-07-22T04:14:18;2;2;
81640;PMS5003;71053;50.722;-1.944;2023-07-22T04:16:44;3;2;
81640;PMS5003;71053;50.722;-1.944;2023-07-22T04:19:09;2;2;
81640;PMS5003;71053;50.722;-1.944;2023-07-22T04:21:34;4;3;
81640;PMS5003;71053;50.722;-1.944;2023-07-22T04:23:59;2;2;
81640;PMS5003;71053;50.722;-1.944;2023-07-22T04:26:25;2;2;
81640;PMS5003;71053;50.722;-1.944;2023-07-22T04:28:50;0;0;
81640;PMS5003;71053;50.722;-1.944;2023-07-22T04:31:15;2;2;
81640;PMS5003;71053;50.722;-1.944;2023-07-22T04:33:40;2;2;
81640;PMS5003;71053;50.722;-1.944;2023-07-22T04:36:06;2;2;
81640;PMS5003;71053;50.722;-1.944;2023-07-22T04:38:31;3;3;
81640;PMS5003;71053;50.722;-1.944;2023-07-22T04:40:57;4;3;
81640;PMS5003;71053;50.722;-1.944;2023-07-22T04:43:22;3;3;
81640;PMS5003;71053;50.722;-1.944;2023-07-22T04:45:48;3;3;
81640;PMS5003;71053;50.722;-1.944;2023-07-22T04:48:13;3;3;
81640;PMS5003;71053;50.722;-1.944;2023-07-22T04:50:38;5;4;
81640;PMS5003;71053;50.722;-1.944;2023-07-22T04:53:03;3;3;
81640;PMS5003;71053;50.722;-1.944;2023-07-22T04:55:28;3;3;
81640;PMS5003;71053;50.722;-1.944;2023-07-22T04:57:54;3;3;
81640;PMS5003;71053;50.722;-1.944;2023-07-22T05:00:19;1;1;
81640;PMS5003;71053;50.722;-1.944;2023-07-22T05:02:44;2;2;
81640;PMS5003;71053;50.722;-1.944;2023-07-22T05:05:09;3;3;
81640;PMS5003;71053;50.722;-1.944;2023-07-22T05:07:35;3;3;
81640;PMS5003;71053;50.722;-1.944;2023-07-22T05:10:00;3;3;
81640;PMS5003;71053;50.722;-1.944;2023-07-22T05:12:25;3;3;
81640;PMS5003;71053;50.722;-1.944;2023-07-22T05:14:50;3;3;
81640;PMS5003;71053;50.722;-1.944;2023-07-22T05:17:16;2;2;
81640;PMS5003;71053;50.722;-1.944;2023-07-22T05:19:41;3;3;
81640;PMS5003;71053;50.722;-1.944;2023-07-22T05:22:06;2;2;
81640;PMS5003;71053;50.722;-1.944;2023-07-22T05:24:31;0;0;
81640;PMS5003;71053;50.722;-1.944;2023-07-22T05:26:57;3;2;
81640;PMS5003;71053;50.722;-1.944;2023-07-22T05:29:22;3;1;
81640;PMS5003;71053;50.722;-1.944;2023-07-22T05:31:47;2;1;
81640;PMS5003;71053;50.722;-1.944;2023-07-22T05:34:12;4;3;
81640;PMS5003;71053;50.722;-1.944;2023-07-22T05:36:38;3;3;
81640;PMS5003;71053;50.722;-1.944;2023-07-22T05:39:03;3;3;
81640;PMS5003;71053;50.722;-1.944;2023-07-22T05:41:28;4;4;
81640;PMS5003;71053;50.722;-1.944;2023-07-22T05:43:53;2;2;
81640;PMS5003;71053;50.722;-1.944;2023-07-22T05:46:19;2;2;
81640;PMS5003;71053;50.722;-1.944;2023-07-22T05:48:44;3;3;
81640;PMS5003;71053;50.722;-1.944;2023-07-22T05:51:09;3;3;
81640;PMS5003;71053;50.722;-1.944;2023-07-22T05:53:34;3;3;
81640;PMS5003;71053;50.722;-1.944;2023-07-22T05:55:59;4;4;
81640;PMS5003;71053;50.722;-1.944;2023-07-22T05:58:25;3;3;
81640;PMS5003;71053;50.722;-1.944;2023-07-22T06:00:52;4;4;
81640;PMS5003;71053;50.722;-1.944;2023-07-22T06:03:15;4;3;
81640;PMS5003;71053;50.722;-1.944;2023-07-22T06:05:40;5;3;
81640;PMS5003;71053;50.722;-1.944;2023-07-22T06:08:05;4;4;
81640;PMS5003;71053;50.722;-1.944;2023-07-22T06:10:31;4;4;
81640;PMS5003;71053;50.722;-1.944;2023-07-22T06:12:56;5;4;
81640;PMS5003;71053;50.722;-1.944;2023-07-22T06:15:21;2;2;
81640;PMS5003;71053;50.722;-1.944;2023-07-22T06:17:46;4;4;
81640;PMS5003;71053;50.722;-1.944;2023-07-22T06:20:12;5;5;
81640;PMS5003;71053;50.722;-1.944;2023-07-22T06:22:37;4;4;
81640;PMS5003;71053;50.722;-1.944;2023-07-22T06:25:02;3;3;
81640;PMS5003;71053;50.722;-1.944;2023-07-22T06:27:27;5;5;
81640;PMS5003;71053;50.722;-1.944;2023-07-22T06:29:52;5;4;
81640;PMS5003;71053;50.722;-1.944;2023-07-22T06:32:18;5;4;
81640;PMS5003;71053;50.722;-1.944;2023-07-22T06:34:43;4;4;
81640;PMS5003;71053;50.722;-1.944;2023-07-22T06:37:08;5;4;
81640;PMS5003;71053;50.722;-1.944;2023-07-22T06:39:33;3;3;
81640;PMS5003;71053;50.722;-1.944;2023-07-22T06:41:58;4;4;
81640;PMS5003;71053;50.722;-1.944;2023-07-22T06:44:24;5;5;
81640;PMS5003;71053;50.722;-1.944;2023-07-22T06:46:49;5;4;
81640;PMS5003;71053;50.722;-1.944;2023-07-22T06:49:14;5;5;
81640;PMS5003;71053;50.722;-1.944;2023-07-22T06:51:39;3;3;
81640;PMS5003;71053;50.722;-1.944;2023-07-22T06:54:05;3;3;
81640;PMS5003;71053;50.722;-1.944;2023-07-22T06:56:30;5;5;
81640;PMS5003;71053;50.722;-1.944;2023-07-22T06:58:55;4;3;
81640;PMS5003;71053;50.722;-1.944;2023-07-22T07:01:20;4;4;
81640;PMS5003;71053;50.722;-1.944;2023-07-22T07:03:45;3;3;
81640;PMS5003;71053;50.722;-1.944;2023-07-22T07:06:11;3;3;
81640;PMS5003;71053;50.722;-1.944;2023-07-22T07:08:36;4;3;
81640;PMS5003;71053;50.722;-1.944;2023-07-22T07:11:01;3;3;
81640;PMS5003;71053;50.722;-1.944;2023-07-22T07:13:26;4;4;
81640;PMS5003;71053;50.722;-1.944;2023-07-22T07:15:51;2;1;
81640;PMS5003;71053;50.722;-1.944;2023-07-22T07:18:16;3;3;
81640;PMS5003;71053;50.722;-1.944;2023-07-22T07:20:41;2;2;
81640;PMS5003;71053;50.722;-1.944;2023-07-22T07:23:07;4;4;
81640;PMS5003;71053;50.722;-1.944;2023-07-22T07:25:32;3;3;
81640;PMS5003;71053;50.722;-1.944;2023-07-22T07:27:57;3;3;
81640;PMS5003;71053;50.722;-1.944;2023-07-22T07:30:22;5;4;
81640;PMS5003;71053;50.722;-1.944;2023-07-22T07:32:47;4;4;
81640;PMS5003;71053;50.722;-1.944;2023-07-22T07:35:13;5;5;
81640;PMS5003;71053;50.722;-1.944;2023-07-22T07:37:38;3;3;
81640;PMS5003;71053;50.722;-1.944;2023-07-22T07:40:03;4;3;
81640;PMS5003;71053;50.722;-1.944;2023-07-22T07:42:28;4;4;
81640;PMS5003;71053;50.722;-1.944;2023-07-22T07:44:53;5;5;
81640;PMS5003;71053;50.722;-1.944;2023-07-22T07:47:19;3;3;
81640;PMS5003;71053;50.722;-1.944;2023-07-22T07:49:44;4;4;
81640;PMS5003;71053;50.722;-1.944;2023-07-22T07:52:09;4;4;
81640;PMS5003;71053;50.722;-1.944;2023-07-22T07:54:34;3;3;
81640;PMS5003;71053;50.722;-1.944;2023-07-22T07:56:59;2;2;
81640;PMS5003;71053;50.722;-1.944;2023-07-22T07:59:24;5;5;
81640;PMS5003;71053;50.722;-1.944;2023-07-22T08:01:50;2;2;
81640;PMS5003;71053;50.722;-1.944;2023-07-22T08:04:15;5;5;
81640;PMS5003;71053;50.722;-1.944;2023-07-22T08:06:41;4;4;
81640;PMS5003;71053;50.722;-1.944;2023-07-22T08:09:06;4;3;
81640;PMS5003;71053;50.722;-1.944;2023-07-22T08:11:31;4;4;
81640;PMS5003;71053;50.722;-1.944;2023-07-22T08:13:56;4;3;
81640;PMS5003;71053;50.722;-1.944;2023-07-22T08:16:21;5;5;
81640;PMS5003;71053;50.722;-1.944;2023-07-22T08:18:46;5;5;
81640;PMS5003;71053;50.722;-1.944;2023-07-22T08:21:12;4;4;
81640;PMS5003;71053;50.722;-1.944;2023-07-22T08:23:37;4;4;
81640;PMS5003;71053;50.722;-1.944;2023-07-22T08:26:02;4;4;
81640;PMS5003;71053;50.722;-1.944;2023-07-22T08:28:27;5;4;
81640;PMS5003;71053;50.722;-1.944;2023-07-22T08:30:54;4;4;
81640;PMS5003;71053;50.722;-1.944;2023-07-22T08:33:17;4;4;
81640;PMS5003;71053;50.722;-1.944;2023-07-22T08:35:43;3;3;
81640;PMS5003;71053;50.722;-1.944;2023-07-22T08:38:08;4;3;
81640;PMS5003;71053;50.722;-1.944;2023-07-22T08:40:33;3;3;
81640;PMS5003;71053;50.722;-1.944;2023-07-22T08:42:59;3;3;
81640;PMS5003;71053;50.722;-1.944;2023-07-22T08:45:24;4;4;
81640;PMS5003;71053;50.722;-1.944;2023-07-22T08:47:49;5;5;
81640;PMS5003;71053;50.722;-1.944;2023-07-22T08:50:15;3;3;
81640;PMS5003;71053;50.722;-1.944;2023-07-22T08:52:39;4;4;
81640;PMS5003;71053;50.722;-1.944;2023-07-22T08:55:05;6;6;
81640;PMS5003;71053;50.722;-1.944;2023-07-22T08:57:30;2;2;
81640;PMS5003;71053;50.722;-1.944;2023-07-22T08:59:56;5;5;
81640;PMS5003;71053;50.722;-1.944;2023-07-22T09:02:20;4;4;
81640;PMS5003;71053;50.722;-1.944;2023-07-22T09:04:46;5;5;
81640;PMS5003;71053;50.722;-1.944;2023-07-22T09:07:11;3;3;
81640;PMS5003;71053;50.722;-1.944;2023-07-22T09:09:36;6;6;
81640;PMS5003;71053;50.722;-1.944;2023-07-22T09:12:01;4;4;
81640;PMS5003;71053;50.722;-1.944;2023-07-22T09:14:26;6;6;
81640;PMS5003;71053;50.722;-1.944;2023-07-22T09:16:51;4;4;
81640;PMS5003;71053;50.722;-1.944;2023-07-22T09:19:17;4;4;
81640;PMS5003;71053;50.722;-1.944;2023-07-22T09:21:42;5;4;
81640;PMS5003;71053;50.722;-1.944;2023-07-22T09:26:32;5;5;
81640;PMS5003;71053;50.722;-1.944;2023-07-22T09:28:58;6;5;
81640;PMS5003;71053;50.722;-1.944;2023-07-22T09:31:24;6;6;
81640;PMS5003;71053;50.722;-1.944;2023-07-22T09:33:48;5;5;
81640;PMS5003;71053;50.722;-1.944;2023-07-22T09:36:14;8;6;
81640;PMS5003;71053;50.722;-1.944;2023-07-22T09:38:39;6;6;
81640;PMS5003;71053;50.722;-1.944;2023-07-22T09:41:04;7;7;
81640;PMS5003;71053;50.722;-1.944;2023-07-22T09:43:29;6;6;
81640;PMS5003;71053;50.722;-1.944;2023-07-22T09:45:54;8;6;
81640;PMS5003;71053;50.722;-1.944;2023-07-22T09:48:21;7;7;
81640;PMS5003;71053;50.722;-1.944;2023-07-22T09:50:45;5;5;
81640;PMS5003;71053;50.722;-1.944;2023-07-22T09:53:12;8;7;
81640;PMS5003;71053;50.722;-1.944;2023-07-22T09:55:36;6;6;
81640;PMS5003;71053;50.722;-1.944;2023-07-22T09:58:01;6;6;
81640;PMS5003;71053;50.722;-1.944;2023-07-22T10:00:29;7;7;
81640;PMS5003;71053;50.722;-1.944;2023-07-22T10:02:52;8;8;
81640;PMS5003;71053;50.722;-1.944;2023-07-22T10:05:17;7;7;
81640;PMS5003;71053;50.722;-1.944;2023-07-22T10:07:43;7;7;
81640;PMS5003;71053;50.722;-1.944;2023-07-22T10:10:08;6;6;
81640;PMS5003;71053;50.722;-1.944;2023-07-22T10:12:33;9;8;
81640;PMS5003;71053;50.722;-1.944;2023-07-22T10:14:58;8;7;
81640;PMS5003;71053;50.722;-1.944;2023-07-22T10:17:24;9;9;
81640;PMS5003;71053;50.722;-1.944;2023-07-22T10:19:49;5;5;
81640;PMS5003;71053;50.722;-1.944;2023-07-22T10:22:14;9;9;
81640;PMS5003;71053;50.722;-1.944;2023-07-22T10:24:40;8;8;
81640;PMS5003;71053;50.722;-1.944;2023-07-22T10:27:06;7;7;
81640;PMS5003;71053;50.722;-1.944;2023-07-22T10:29:31;8;8;
81640;PMS5003;71053;50.722;-1.944;2023-07-22T10:31:56;8;7;
81640;PMS5003;71053;50.722;-1.944;2023-07-22T10:34:21;6;5;
81640;PMS5003;71053;50.722;-1.944;2023-07-22T10:36:47;7;6;
81640;PMS5003;71053;50.722;-1.944;2023-07-22T10:39:17;8;8;
81640;PMS5003;71053;50.722;-1.944;2023-07-22T10:41:38;8;8;
81640;PMS5003;71053;50.722;-1.944;2023-07-22T10:44:02;9;7;
81640;PMS5003;71053;50.722;-1.944;2023-07-22T10:46:31;11;10;
81640;PMS5003;71053;50.722;-1.944;2023-07-22T10:48:53;8;8;
81640;PMS5003;71053;50.722;-1.944;2023-07-22T10:51:18;8;8;
81640;PMS5003;71053;50.722;-1.944;2023-07-22T10:53:44;9;9;
81640;PMS5003;71053;50.722;-1.944;2023-07-22T10:56:13;11;10;
81640;PMS5003;71053;50.722;-1.944;2023-07-22T11:03:25;13;11;
81640;PMS5003;71053;50.722;-1.944;2023-07-22T11:05:52;10;10;
81640;PMS5003;71053;50.722;-1.944;2023-07-22T11:08:16;9;8;
81640;PMS5003;71053;50.722;-1.944;2023-07-22T11:13:07;18;17;
81640;PMS5003;71053;50.722;-1.944;2023-07-22T11:15:33;8;8;
81640;PMS5003;71053;50.722;-1.944;2023-07-22T11:17:58;13;11;
81640;PMS5003;71053;50.722;-1.944;2023-07-22T11:20:24;14;14;
81640;PMS5003;71053;50.722;-1.944;2023-07-22T11:22:50;14;14;
81640;PMS5003;71053;50.722;-1.944;2023-07-22T11:25:18;13;12;
81640;PMS5003;71053;50.722;-1.944;2023-07-22T11:27:40;16;14;
81640;PMS5003;71053;50.722;-1.944;2023-07-22T11:30:06;14;14;
81640;PMS5003;71053;50.722;-1.944;2023-07-22T11:32:31;16;15;
81640;PMS5003;71053;50.722;-1.944;2023-07-22T11:34:56;16;16;
81640;PMS5003;71053;50.722;-1.944;2023-07-22T11:37:22;15;15;
81640;PMS5003;71053;50.722;-1.944;2023-07-22T11:39:47;15;13;
81640;PMS5003;71053;50.722;-1.944;2023-07-22T11:42:13;13;13;
81640;PMS5003;71053;50.722;-1.944;2023-07-22T11:44:39;15;15;
81640;PMS5003;71053;50.722;-1.944;2023-07-22T11:47:04;16;16;
81640;PMS5003;71053;50.722;-1.944;2023-07-22T11:49:31;14;14;
81640;PMS5003;71053;50.722;-1.944;2023-07-22T11:51:56;15;15;
81640;PMS5003;71053;50.722;-1.944;2023-07-22T11:54:20;16;15;
81640;PMS5003;71053;50.722;-1.944;2023-07-22T11:56:46;14;13;
81640;PMS5003;71053;50.722;-1.944;2023-07-22T11:59:11;16;15;
81640;PMS5003;71053;50.722;-1.944;2023-07-22T12:01:37;10;10;
81640;PMS5003;71053;50.722;-1.944;2023-07-22T12:04:08;13;13;
81640;PMS5003;71053;50.722;-1.944;2023-07-22T12:06:28;16;15;
81640;PMS5003;71053;50.722;-1.944;2023-07-22T12:08:54;10;10;
81640;PMS5003;71053;50.722;-1.944;2023-07-22T12:11:20;14;14;
81640;PMS5003;71053;50.722;-1.944;2023-07-22T12:13:45;13;13;
81640;PMS5003;71053;50.722;-1.944;2023-07-22T12:16:10;15;15;
81640;PMS5003;71053;50.722;-1.944;2023-07-22T12:18:41;15;14;
81640;PMS5003;71053;50.722;-1.944;2023-07-22T12:21:01;14;14;
81640;PMS5003;71053;50.722;-1.944;2023-07-22T12:23:27;18;18;
81640;PMS5003;71053;50.722;-1.944;2023-07-22T12:25:52;18;16;
81640;PMS5003;71053;50.722;-1.944;2023-07-22T12:28:18;19;17;
81640;PMS5003;71053;50.722;-1.944;2023-07-22T12:30:43;15;15;
81640;PMS5003;71053;50.722;-1.944;2023-07-22T12:33:08;22;21;
81640;PMS5003;71053;50.722;-1.944;2023-07-22T12:35:33;15;15;
81640;PMS5003;71053;50.722;-1.944;2023-07-22T12:37:59;18;17;
81640;PMS5003;71053;50.722;-1.944;2023-07-22T12:40:24;15;15;
81640;PMS5003;71053;50.722;-1.944;2023-07-22T12:42:49;24;22;
81640;PMS5003;71053;50.722;-1.944;2023-07-22T12:45:15;15;15;
81640;PMS5003;71053;50.722;-1.944;2023-07-22T12:47:40;17;17;
81640;PMS5003;71053;50.722;-1.944;2023-07-22T12:50:06;17;16;
81640;PMS5003;71053;50.722;-1.944;2023-07-22T12:52:30;14;12;
81640;PMS5003;71053;50.722;-1.944;2023-07-22T12:54:56;23;21;
81640;PMS5003;71053;50.722;-1.944;2023-07-22T12:57:22;18;17;
81640;PMS5003;71053;50.722;-1.944;2023-07-22T12:59:47;16;15;
81640;PMS5003;71053;50.722;-1.944;2023-07-22T13:02:13;18;17;
81640;PMS5003;71053;50.722;-1.944;2023-07-22T13:04:39;18;18;
81640;PMS5003;71053;50.722;-1.944;2023-07-22T13:07:04;16;14;
81640;PMS5003;71053;50.722;-1.944;2023-07-22T13:09:29;19;17;
81640;PMS5003;71053;50.722;-1.944;2023-07-22T13:11:55;21;20;
81640;PMS5003;71053;50.722;-1.944;2023-07-22T13:14:20;20;18;
81640;PMS5003;71053;50.722;-1.944;2023-07-22T13:16:45;15;15;
81640;PMS5003;71053;50.722;-1.944;2023-07-22T13:19:11;18;17;
81640;PMS5003;71053;50.722;-1.944;2023-07-22T13:21:36;15;15;
81640;PMS5003;71053;50.722;-1.944;2023-07-22T13:24:02;20;18;
81640;PMS5003;71053;50.722;-1.944;2023-07-22T13:26:27;23;21;
81640;PMS5003;71053;50.722;-1.944;2023-07-22T13:28:53;22;20;
81640;PMS5003;71053;50.722;-1.944;2023-07-22T13:31:18;16;16;
81640;PMS5003;71053;50.722;-1.944;2023-07-22T13:33:43;18;16;
81640;PMS5003;71053;50.722;-1.944;2023-07-22T13:36:08;16;16;
81640;PMS5003;71053;50.722;-1.944;2023-07-22T13:38:33;16;15;
81640;PMS5003;71053;50.722;-1.944;2023-07-22T13:40:59;14;14;
81640;PMS5003;71053;50.722;-1.944;2023-07-22T13:43:24;15;15;
81640;PMS5003;71053;50.722;-1.944;2023-07-22T13:45:50;17;17;
81640;PMS5003;71053;50.722;-1.944;2023-07-22T13:48:15;19;19;
81640;PMS5003;71053;50.722;-1.944;2023-07-22T13:50:41;22;22;
81640;PMS5003;71053;50.722;-1.944;2023-07-22T13:53:07;19;19;
81640;PMS5003;71053;50.722;-1.944;2023-07-22T13:55:32;17;17;
81640;PMS5003;71053;50.722;-1.944;2023-07-22T13:57:58;19;18;
81640;PMS5003;71053;50.722;-1.944;2023-07-22T14:00:24;19;18;
81640;PMS5003;71053;50.722;-1.944;2023-07-22T14:02:49;17;15;
81640;PMS5003;71053;50.722;-1.944;2023-07-22T14:05:15;14;14;
81640;PMS5003;71053;50.722;-1.944;2023-07-22T14:07:41;17;17;
81640;PMS5003;71053;50.722;-1.944;2023-07-22T14:10:07;20;20;
81640;PMS5003;71053;50.722;-1.944;2023-07-22T14:12:32;18;18;
81640;PMS5003;71053;50.722;-1.944;2023-07-22T14:14:57;15;15;
81640;PMS5003;71053;50.722;-1.944;2023-07-22T14:17:22;20;18;
81640;PMS5003;71053;50.722;-1.944;2023-07-22T14:19:48;16;15;
81640;PMS5003;71053;50.722;-1.944;2023-07-22T14:22:14;20;18;
81640;PMS5003;71053;50.722;-1.944;2023-07-22T14:24:39;19;19;
81640;PMS5003;71053;50.722;-1.944;2023-07-22T14:27:05;19;19;
81640;PMS5003;71053;50.722;-1.944;2023-07-22T14:29:31;18;18;
81640;PMS5003;71053;50.722;-1.944;2023-07-22T14:31:56;17;17;
81640;PMS5003;71053;50.722;-1.944;2023-07-22T14:34:21;18;18;
81640;PMS5003;71053;50.722;-1.944;2023-07-22T14:36:47;18;17;
81640;PMS5003;71053;50.722;-1.944;2023-07-22T14:39:13;16;15;
81640;PMS5003;71053;50.722;-1.944;2023-07-22T14:41:40;22;19;
81640;PMS5003;71053;50.722;-1.944;2023-07-22T14:44:04;14;14;
81640;PMS5003;71053;50.722;-1.944;2023-07-22T14:46:29;15;15;
81640;PMS5003;71053;50.722;-1.944;2023-07-22T14:48:55;20;20;
81640;PMS5003;71053;50.722;-1.944;2023-07-22T14:51:20;17;16;
81640;PMS5003;71053;50.722;-1.944;2023-07-22T14:53:45;16;16;
81640;PMS5003;71053;50.722;-1.944;2023-07-22T14:56:11;18;18;
81640;PMS5003;71053;50.722;-1.944;2023-07-22T14:58:37;20;16;
81640;PMS5003;71053;50.722;-1.944;2023-07-22T15:01:02;17;17;
81640;PMS5003;71053;50.722;-1.944;2023-07-22T15:03:27;15;14;
81640;PMS5003;71053;50.722;-1.944;2023-07-22T15:05:53;13;13;
81640;PMS5003;71053;50.722;-1.944;2023-07-22T15:08:19;16;15;
81640;PMS5003;71053;50.722;-1.944;2023-07-22T15:10:50;14;14;
81640;PMS5003;71053;50.722;-1.944;2023-07-22T15:13:10;16;15;
81640;PMS5003;71053;50.722;-1.944;2023-07-22T15:15:35;12;12;
81640;PMS5003;71053;50.722;-1.944;2023-07-22T15:18:00;15;14;
81640;PMS5003;71053;50.722;-1.944;2023-07-22T15:20:26;17;16;
81640;PMS5003;71053;50.722;-1.944;2023-07-22T15:22:51;13;13;
81640;PMS5003;71053;50.722;-1.944;2023-07-22T15:25:16;15;14;
81640;PMS5003;71053;50.722;-1.944;2023-07-22T15:27:41;12;11;
81640;PMS5003;71053;50.722;-1.944;2023-07-22T15:30:08;13;13;
81640;PMS5003;71053;50.722;-1.944;2023-07-22T15:32:33;12;12;
81640;PMS5003;71053;50.722;-1.944;2023-07-22T15:34:58;9;9;
81640;PMS5003;71053;50.722;-1.944;2023-07-22T15:37:24;16;13;
81640;PMS5003;71053;50.722;-1.944;2023-07-22T15:39:50;12;12;
81640;PMS5003;71053;50.722;-1.944;2023-07-22T15:42:15;11;11;
81640;PMS5003;71053;50.722;-1.944;2023-07-22T15:44:41;11;11;
81640;PMS5003;71053;50.722;-1.944;2023-07-22T15:47:07;10;10;
81640;PMS5003;71053;50.722;-1.944;2023-07-22T15:49:32;9;9;
81640;PMS5003;71053;50.722;-1.944;2023-07-22T15:51:57;10;9;
81640;PMS5003;71053;50.722;-1.944;2023-07-22T15:54:23;7;7;
81640;PMS5003;71053;50.722;-1.944;2023-07-22T15:56:48;12;11;
81640;PMS5003;71053;50.722;-1.944;2023-07-22T15:59:14;9;9;
81640;PMS5003;71053;50.722;-1.944;2023-07-22T16:01:39;9;8;
81640;PMS5003;71053;50.722;-1.944;2023-07-22T16:04:04;10;9;
81640;PMS5003;71053;50.722;-1.944;2023-07-22T16:06:30;8;8;
81640;PMS5003;71053;50.722;-1.944;2023-07-22T16:08:55;7;7;
81640;PMS5003;71053;50.722;-1.944;2023-07-22T16:11:20;6;6;
81640;PMS5003;71053;50.722;-1.944;2023-07-22T16:13:46;10;10;
81640;PMS5003;71053;50.722;-1.944;2023-07-22T16:16:12;9;9;
81640;PMS5003;71053;50.722;-1.944;2023-07-22T16:18:37;10;9;